Time;durP1;ratioP1;P1;durP2;ratioP2;P2;SDS_P1;SDS_P2;PMS_P1;PMS_P2;Temp;Humidity;BMP_temperature;BMP_pressure;BME280_temperature;BME280_humidity;BME280_pressure;Samples;Min_cycle;Max_cycle;Signal;HPM_P1;HPM_P2
2023/10/10 00:02:28;;;;;;;5.97;2.00;;;;;;;16.40;100.00;101939.19;5057581;28;20032;-76
2023/10/10 00:04:59;;;;;;;5.22;2.30;;;;;;;16.41;100.00;101940.78;5049863;28;20056;-74
2023/10/10 00:07:27;;;;;;;4.50;2.10;;;;;;;16.37;100.00;101928.66;5056376;28;20028;-76
2023/10/10 00:09:52;;;;;;;6.05;3.03;;;;;;;16.34;100.00;101934.25;5026665;28;20057;-73
2023/10/10 00:12:21;;;;;;;6.68;3.15;;;;;;;16.32;100.00;101928.19;5016436;28;20097;-74
2023/10/10 00:14:50;;;;;;;5.47;3.47;;;;;;;16.31;100.00;101930.22;5027591;28;20063;-74
2023/10/10 00:17:15;;;;;;;6.00;3.33;;;;;;;16.20;100.00;101929.34;5039010;28;20581;-75
2023/10/10 00:19:44;;;;;;;5.95;3.00;;;;;;;16.17;100.00;101932.94;5030141;28;20033;-73
2023/10/10 00:22:10;;;;;;;5.80;3.17;;;;;;;16.12;100.00;101928.44;5027211;28;20119;-76
2023/10/10 00:24:35;;;;;;;4.15;2.50;;;;;;;16.18;100.00;101928.91;5034819;28;20029;-74
2023/10/10 00:27:14;;;;;;;9.30;4.18;;;;;;;16.14;100.00;101930.91;5018950;28;20045;-73
2023/10/10 00:29:43;;;;;;;8.63;3.80;;;;;;;16.20;100.00;101932.16;5015942;28;20035;-74
2023/10/10 00:32:16;;;;;;;7.28;5.07;;;;;;;16.17;100.00;101924.44;5045524;28;20405;-73
2023/10/10 00:34:46;;;;;;;7.88;4.90;;;;;;;16.09;100.00;101917.16;5044781;28;20029;-74
2023/10/10 00:37:13;;;;;;;9.45;4.78;;;;;;;16.14;100.00;101925.25;5041855;28;20181;-75
2023/10/10 00:39:38;;;;;;;12.57;4.93;;;;;;;16.09;100.00;101931.28;5026391;28;20111;-78
2023/10/10 00:42:05;;;;;;;7.75;4.40;;;;;;;16.17;100.00;101930.09;5048667;28;20119;-77
2023/10/10 00:44:31;;;;;;;6.22;4.55;;;;;;;16.10;100.00;101930.06;5036302;28;20091;-78
2023/10/10 00:46:58;;;;;;;9.75;4.18;;;;;;;16.16;100.00;101934.13;5037376;28;20024;-78
2023/10/10 00:49:31;;;;;;;10.68;4.35;;;;;;;16.17;100.00;101930.94;5051445;28;20017;-73
2023/10/10 00:52:01;;;;;;;10.20;5.03;;;;;;;16.09;100.00;101922.78;5041531;28;20033;-73
2023/10/10 00:54:31;;;;;;;7.40;5.10;;;;;;;16.10;100.00;101921.59;5042115;28;20035;-73
2023/10/10 00:56:59;;;;;;;9.65;5.95;;;;;;;16.12;100.00;101914.34;5029102;28;20462;-73
2023/10/10 00:59:35;;;;;;;9.43;5.05;;;;;;;16.09;100.00;101914.31;5025396;28;20837;-74
2023/10/10 01:02:04;;;;;;;6.65;4.10;;;;;;;16.11;100.00;101911.91;5025113;28;20032;-75
2023/10/10 01:07:25;;;;;;;11.13;5.28;;;;;;;16.18;100.00;101906.31;5020583;28;20062;-74
2023/10/10 01:12:22;;;;;;;7.78;5.22;;;;;;;16.17;100.00;101907.50;5040090;28;20128;-75
2023/10/10 01:14:54;;;;;;;9.80;5.50;;;;;;;16.13;100.00;101906.66;5035496;28;20075;-76
2023/10/10 01:17:20;;;;;;;9.52;6.00;;;;;;;16.08;100.00;101892.91;5034885;28;20040;-74
2023/10/10 01:19:46;;;;;;;10.25;5.15;;;;;;;16.01;100.00;101893.69;5027509;28;20563;-73
2023/10/10 01:22:22;;;;;;;6.55;4.38;;;;;;;16.02;100.00;101890.47;5026513;28;20123;-76
2023/10/10 01:24:51;;;;;;;16.35;5.10;;;;;;;16.07;100.00;101894.13;5027183;28;20039;-73
2023/10/10 01:27:21;;;;;;;7.13;4.82;;;;;;;16.03;100.00;101892.06;5042975;28;20044;-73
2023/10/10 01:30:01;;;;;;;11.05;4.82;;;;;;;16.05;100.00;101884.03;5040916;28;20032;-74
2023/10/10 01:32:26;;;;;;;9.20;4.28;;;;;;;16.12;100.00;101893.75;5030874;28;20032;-74
2023/10/10 01:34:52;;;;;;;11.13;4.78;;;;;;;16.15;100.00;101890.13;5043317;28;20041;-73
2023/10/10 01:40:15;;;;;;;7.45;4.32;;;;;;;16.19;100.00;101882.50;5049285;28;20017;-73
2023/10/10 01:42:45;;;;;;;12.38;5.40;;;;;;;16.14;100.00;101880.06;5047004;28;20029;-73
2023/10/10 01:45:17;;;;;;;8.02;5.00;;;;;;;16.16;100.00;101877.66;5050047;28;20029;-76
2023/10/10 01:47:56;;;;;;;8.13;3.50;;;;;;;16.17;100.00;101879.25;5050147;28;20050;-73
2023/10/10 01:50:22;;;;;;;12.65;5.75;;;;;;;16.15;100.00;101876.00;5050559;28;20037;-76
2023/10/10 01:52:49;;;;;;;10.00;4.22;;;;;;;16.17;100.00;101877.25;5047013;28;20031;-76
2023/10/10 01:55:17;;;;;;;9.25;4.50;;;;;;;16.18;100.00;101875.25;5025457;28;20029;-77
2023/10/10 01:57:42;;;;;;;8.82;4.57;;;;;;;16.21;100.00;101877.28;5035696;28;20114;-76
2023/10/10 02:00:20;;;;;;;9.60;4.82;;;;;;;16.20;100.00;101872.84;5027858;28;20079;-74
2023/10/10 02:02:49;;;;;;;7.57;5.22;;;;;;;16.19;100.00;101866.38;5033883;28;20087;-75
2023/10/10 02:05:20;;;;;;;10.65;6.82;;;;;;;16.19;100.00;101860.75;5037053;28;20179;-74
2023/10/10 02:07:53;;;;;;;;;;;;;;;16.17;100.00;101863.16;5048009;28;20500;-73
2023/10/10 02:10:18;;;;;;;15.55;8.75;;;;;;;16.13;100.00;101856.66;5030660;28;19912;-73
2023/10/10 02:12:44;;;;;;;13.75;6.63;;;;;;;16.14;100.00;101865.94;5032320;28;20029;-73
2023/10/10 02:15:12;;;;;;;15.57;7.57;;;;;;;16.10;100.00;101862.28;5052877;28;20115;-76
2023/10/10 02:17:50;;;;;;;10.88;6.32;;;;;;;16.09;100.00;101863.50;5035050;28;20663;-73
2023/10/10 02:28:00;;;;;;;14.05;6.97;;;;;;;16.10;100.00;101848.94;5048892;28;20124;-74
2023/10/10 02:30:35;;;;;;;16.52;8.80;;;;;;;16.08;100.00;101845.72;5033608;28;20450;-74
2023/10/10 02:38:17;;;;;;;16.48;9.48;;;;;;;15.96;100.00;101841.19;5048769;28;20035;-73
2023/10/10 02:40:43;;;;;;;16.30;8.90;;;;;;;15.96;100.00;101829.91;5049664;28;20037;-74
2023/10/10 02:45:52;;;;;;;16.85;8.80;;;;;;;15.99;100.00;101823.47;5029042;28;20071;-74
2023/10/10 02:48:21;;;;;;;13.68;8.10;;;;;;;15.96;100.00;101824.25;5048060;28;20148;-75
2023/10/10 02:50:51;;;;;;;18.33;8.88;;;;;;;15.97;100.00;101825.88;5039658;28;20098;-73
2023/10/10 02:53:19;;;;;;;15.93;7.97;;;;;;;15.91;100.00;101821.78;5056836;28;20021;-76
2023/10/10 02:55:50;;;;;;;22.98;11.75;;;;;;;15.92;100.00;101826.25;5040833;28;20029;-75
2023/10/10 02:58:24;;;;;;;14.75;8.15;;;;;;;15.96;100.00;101827.09;5049560;28;20036;-75
2023/10/10 03:00:50;;;;;;;17.45;10.13;;;;;;;15.94;100.00;101823.84;5046930;28;20033;-77
2023/10/10 03:03:18;;;;;;;16.90;10.13;;;;;;;15.88;100.00;101822.59;5036580;28;20138;-77
2023/10/10 03:05:50;;;;;;;16.88;8.27;;;;;;;15.93;100.00;101825.03;5055910;28;20029;-77
2023/10/10 03:08:34;;;;;;;15.43;9.33;;;;;;;15.87;100.00;101826.59;5026900;28;20022;-76
2023/10/10 03:11:14;;;;;;;15.82;8.40;;;;;;;15.89;100.00;101832.66;5030748;28;20032;-73
2023/10/10 03:13:54;;;;;;;14.05;7.90;;;;;;;15.90;100.00;101825.81;5044658;28;20090;-74
2023/10/10 03:34:45;;;;;;;18.15;9.05;;;;;;;15.84;100.00;101850.78;5035319;28;20047;-73
2023/10/10 03:39:54;;;;;;;13.55;8.25;;;;;;;15.84;100.00;101838.69;5051496;28;20033;-73
2023/10/10 05:24:26;;;;;;;17.77;9.45;;;;;;;15.57;100.00;101739.25;5058539;28;20086;-74
2023/10/10 05:26:54;;;;;;;20.33;9.48;;;;;;;15.58;100.00;101730.41;5058950;28;20540;-74
2023/10/10 05:29:24;;;;;;;16.42;8.68;;;;;;;15.43;100.00;101739.94;5058382;28;20111;-77
2023/10/10 05:31:51;;;;;;;15.27;9.05;;;;;;;15.44;100.00;101733.91;5055836;28;20051;-78
2023/10/10 05:34:22;;;;;;;14.52;9.30;;;;;;;15.45;100.00;101741.19;5054364;28;20057;-77
2023/10/10 05:36:48;;;;;;;16.95;10.75;;;;;;;15.48;100.00;101735.97;5051063;28;20035;-77
2023/10/10 05:39:21;;;;;;;16.15;9.52;;;;;;;15.52;100.00;101731.16;5060020;28;20029;-77
2023/10/10 05:41:54;;;;;;;16.23;10.15;;;;;;;15.41;100.00;101725.41;5035043;28;20028;-76
2023/10/10 05:44:21;;;;;;;19.23;11.18;;;;;;;15.41;100.00;101725.41;5052472;28;20026;-78
2023/10/10 05:46:47;;;;;;;21.70;10.55;;;;;;;15.31;100.00;101721.31;5035633;28;20042;-76
2023/10/10 05:49:13;;;;;;;18.67;10.35;;;;;;;15.35;100.00;101722.16;5058833;28;20484;-76
2023/10/10 05:51:38;;;;;;;18.60;10.68;;;;;;;15.31;100.00;101720.50;5051269;28;20036;-76
2023/10/10 05:54:04;;;;;;;22.15;12.93;;;;;;;15.31;100.00;101717.69;5056523;28;20167;-75
2023/10/10 05:56:30;;;;;;;25.85;12.88;;;;;;;15.16;100.00;101713.94;5054073;28;20016;-75
2023/10/10 05:58:56;;;;;;;21.90;12.13;;;;;;;15.19;100.00;101719.59;5056111;28;20028;-76
2023/10/10 06:01:23;;;;;;;25.02;12.27;;;;;;;15.22;100.00;101721.66;5042109;28;20751;-76
2023/10/10 06:03:51;;;;;;;20.38;11.48;;;;;;;15.24;100.00;101710.78;5062259;28;20036;-75
2023/10/10 06:06:18;;;;;;;20.00;11.95;;;;;;;15.24;100.00;101713.63;5060856;28;20412;-75
2023/10/10 06:08:44;;;;;;;22.92;11.10;;;;;;;15.27;100.00;101714.03;5045328;28;20024;-77
2023/10/10 06:11:11;;;;;;;25.13;13.85;;;;;;;15.18;100.00;101711.53;5061975;28;20017;-76
2023/10/10 06:13:39;;;;;;;28.23;13.15;;;;;;;15.38;100.00;101717.75;5065169;28;20028;-75
2023/10/10 06:16:12;;;;;;;28.42;14.57;;;;;;;15.35;100.00;101715.72;5062590;28;20103;-75
2023/10/10 06:18:50;;;;;;;27.98;14.13;;;;;;;15.34;100.00;101708.44;5037639;28;20242;-77
2023/10/10 06:21:16;;;;;;;26.20;15.57;;;;;;;15.30;100.00;101718.88;5041940;28;20031;-76
2023/10/10 06:23:42;;;;;;;30.65;15.07;;;;;;;15.24;100.00;101715.59;5057900;28;20037;-76
2023/10/10 06:26:08;;;;;;;26.30;14.15;;;;;;;15.28;100.00;101724.09;5055841;28;20078;-75
2023/10/10 06:28:44;;;;;;;30.08;16.35;;;;;;;15.23;100.00;101726.09;5045945;28;20566;-75
2023/10/10 06:31:14;;;;;;;38.65;17.70;;;;;;;15.21;100.00;101720.03;5066775;28;20032;-75
2023/10/10 06:33:42;;;;;;;42.72;19.50;;;;;;;15.24;100.00;101730.53;5059837;28;20097;-75
2023/10/10 06:38:46;;;;;;;49.50;21.38;;;;;;;15.22;100.00;101718.84;5060954;28;20825;-75
2023/10/10 06:41:17;;;;;;;43.85;20.95;;;;;;;15.25;100.00;101718.03;5060918;28;20037;-73
2023/10/10 06:43:46;;;;;;;50.13;23.10;;;;;;;15.08;100.00;101713.06;5056439;28;20048;-73
2023/10/10 06:46:17;;;;;;;56.78;22.88;;;;;;;15.11;100.00;101717.91;5058688;28;20534;-73
2023/10/10 06:48:43;;;;;;;54.65;24.48;;;;;;;15.10;100.00;101709.88;5059746;28;20121;-73
2023/10/10 06:51:09;;;;;;;53.65;22.77;;;;;;;15.14;100.00;101705.06;5060486;28;20032;-73
2023/10/10 06:53:35;;;;;;;59.72;26.17;;;;;;;15.16;100.00;101709.09;5062309;28;20028;-74
2023/10/10 06:56:14;;;;;;;66.78;25.63;;;;;;;15.12;100.00;101702.63;5052167;28;20034;-73
2023/10/10 06:58:46;;;;;;;64.70;26.40;;;;;;;15.15;100.00;101712.31;5066764;28;20055;-73
2023/10/10 07:01:12;;;;;;;67.45;26.65;;;;;;;15.14;100.00;101711.50;5060066;28;20445;-73
2023/10/10 07:03:41;;;;;;;61.50;25.33;;;;;;;15.13;100.00;101721.16;5070439;28;20113;-73
2023/10/10 07:06:08;;;;;;;64.22;26.60;;;;;;;15.09;100.00;101723.13;5067481;28;20495;-72
2023/10/10 07:08:34;;;;;;;61.17;26.50;;;;;;;15.17;100.00;101721.19;5058507;28;20476;-72
2023/10/10 07:11:01;;;;;;;69.15;28.08;;;;;;;15.28;100.00;101726.91;5062247;28;20028;-74
2023/10/10 07:13:29;;;;;;;58.55;22.77;;;;;;;15.21;100.00;101725.66;5044888;28;20436;-72
2023/10/10 07:15:59;;;;;;;61.38;27.88;;;;;;;15.27;100.00;101730.97;5053461;28;20037;-76
2023/10/10 07:18:25;;;;;;;64.95;27.10;;;;;;;15.27;100.00;101719.69;5062949;28;20556;-74
2023/10/10 07:21:04;;;;;;;58.45;23.80;;;;;;;15.27;100.00;101730.97;5068903;28;20032;-75
2023/10/10 07:23:41;;;;;;;61.83;24.10;;;;;;;15.29;100.00;101725.75;5062020;28;20063;-74
2023/10/10 07:26:18;;;;;;;65.28;26.48;;;;;;;15.35;100.00;101724.19;5047658;28;20055;-76
2023/10/10 07:28:49;;;;;;;59.92;25.42;;;;;;;15.43;100.00;101723.00;5039000;28;20075;-72
2023/10/10 07:31:21;;;;;;;67.45;27.15;;;;;;;15.34;100.00;101714.88;5034649;28;20033;-73
2023/10/10 07:33:55;;;;;;;62.97;25.08;;;;;;;15.39;100.00;101708.91;5035287;28;20055;-74
2023/10/10 07:36:24;;;;;;;70.63;27.98;;;;;;;15.43;100.00;101712.56;5033607;28;20040;-73
2023/10/10 07:41:44;;;;;;;57.08;25.10;;;;;;;15.43;100.00;101712.56;5041711;28;20044;-76
2023/10/10 07:44:10;;;;;;;66.50;26.98;;;;;;;15.47;100.00;101708.94;5041952;28;20036;-76
2023/10/10 07:46:36;;;;;;;65.43;25.00;;;;;;;15.43;100.00;101697.63;5041264;28;20118;-76
2023/10/10 07:49:03;;;;;;;64.90;26.08;;;;;;;15.44;100.00;101691.59;5043657;28;20048;-77
2023/10/10 07:51:29;;;;;;;60.03;25.38;;;;;;;15.50;100.00;101682.78;5042903;28;20078;-73
2023/10/10 07:54:02;;;;;;;70.13;30.48;;;;;;;15.50;100.00;101688.41;5024286;28;20642;-73
2023/10/10 07:56:31;;;;;;;63.13;24.30;;;;;;;15.51;100.00;101695.66;5043569;28;20028;-73
2023/10/10 07:58:59;;;;;;;51.45;23.80;;;;;;;15.58;100.00;101695.72;5044544;28;20036;-74
2023/10/10 08:01:27;;;;;;;66.78;28.63;;;;;;;15.59;100.00;101691.69;5029933;28;20048;-74
2023/10/10 08:03:53;;;;;;;70.90;26.73;;;;;;;15.54;100.00;101687.25;5040827;28;20033;-74
2023/10/10 08:06:21;;;;;;;66.63;28.73;;;;;;;15.58;100.00;101692.88;5037654;28;20016;-73
2023/10/10 08:09:11;;;;;;;57.40;27.63;;;;;;;15.60;100.00;101696.97;5034014;28;20402;-73
2023/10/10 08:11:37;;;;;;;65.00;26.52;;;;;;;15.70;100.00;101706.69;5033559;28;20566;-72
2023/10/10 08:14:09;;;;;;;59.42;26.55;;;;;;;15.70;100.00;101698.22;5042206;28;20020;-72
2023/10/10 08:16:36;;;;;;;57.83;28.35;;;;;;;15.80;100.00;101705.97;5033968;28;20583;-73
2023/10/10 08:19:05;;;;;;;65.65;27.02;;;;;;;15.84;100.00;101706.81;5045148;28;20037;-71
2023/10/10 08:21:38;;;;;;;59.17;25.88;;;;;;;15.88;100.00;101715.31;5044387;28;20037;-72
2023/10/10 08:24:07;;;;;;;;;;;;;;;15.85;100.00;101711.25;5036869;28;20477;-71
2023/10/10 08:26:39;;;;;;;66.95;26.92;;;;;;;15.98;100.00;101719.38;5044568;28;19908;-74
2023/10/10 08:29:08;;;;;;;58.97;26.08;;;;;;;16.03;100.00;101719.81;5023774;28;20042;-74
2023/10/10 08:31:37;;;;;;;65.82;27.38;;;;;;;16.04;100.00;101720.63;5042686;28;20036;-74
2023/10/10 08:34:04;;;;;;;61.05;27.15;;;;;;;16.13;100.00;101720.25;5039976;28;20476;-73
2023/10/10 08:36:29;;;;;;;55.03;24.05;;;;;;;16.09;100.00;101719.47;5026845;28;20485;-73
2023/10/10 08:38:56;;;;;;;62.97;27.58;;;;;;;16.18;100.00;101717.88;5028443;28;20033;-73
2023/10/10 08:41:25;;;;;;;64.57;26.60;;;;;;;16.19;100.00;101707.38;5037616;28;20396;-74
2023/10/10 08:43:58;;;;;;;54.92;27.95;;;;;;;16.19;100.00;101702.56;5041282;28;20039;-74
2023/10/10 08:46:25;;;;;;;;;;;;;;;16.23;100.00;101696.91;5038498;28;20443;-72
2023/10/10 08:48:52;;;;;;;63.25;27.13;;;;;;;16.29;100.00;101698.16;5031041;28;19979;-73
2023/10/10 08:51:17;;;;;;;58.78;25.67;;;;;;;16.36;100.00;101700.19;5046425;28;20437;-77
2023/10/10 08:53:43;;;;;;;54.53;25.67;;;;;;;16.38;100.00;101701.44;5040674;28;20036;-76
2023/10/10 08:56:09;;;;;;;61.55;28.33;;;;;;;16.48;100.00;101696.19;5039462;28;20029;-77
2023/10/10 08:58:35;;;;;;;66.10;27.73;;;;;;;16.51;100.00;101681.25;5025107;28;20029;-76
2023/10/10 09:01:02;;;;;;;67.85;28.63;;;;;;;16.61;100.00;101686.13;5036105;28;20021;-76
2023/10/10 09:03:28;;;;;;;55.92;25.92;;;;;;;16.64;100.00;101676.88;5047120;28;20033;-76
2023/10/10 09:05:55;;;;;;;59.90;28.13;;;;;;;16.67;100.00;101674.06;5042179;28;20058;-76
2023/10/10 09:08:26;;;;;;;54.20;25.73;;;;;;;16.73;100.00;101670.81;5043242;28;20370;-77
2023/10/10 09:10:56;;;;;;;57.35;26.25;;;;;;;16.73;100.00;101657.47;5034449;28;20013;-77
2023/10/10 09:13:21;;;;;;;60.80;28.48;;;;;;;16.84;100.00;101672.50;5038981;28;20029;-76
2023/10/10 09:15:56;;;;;;;58.10;28.00;;;;;;;16.85;100.00;101676.94;5036885;28;20040;-77
2023/10/10 09:18:22;;;;;;;57.83;28.77;;;;;;;16.89;100.00;101676.09;5037363;28;20028;-77
2023/10/10 09:20:49;;;;;;;61.22;28.52;;;;;;;16.84;100.00;101669.66;5040458;28;20390;-76
2023/10/10 09:23:28;;;;;;;67.53;27.60;;;;;;;16.94;100.00;101672.91;5032355;28;20025;-77
2023/10/10 09:26:29;;;;;;;53.80;27.13;;;;;;;16.89;100.00;101664.78;5042113;28;20048;-76
2023/10/10 09:28:59;;;;;;;60.78;27.20;;;;;;;17.04;100.00;101660.78;5039691;28;20049;-76
2023/10/10 09:31:31;;;;;;;57.28;27.00;;;;;;;17.15;100.00;101655.94;5038546;28;20047;-76
2023/10/10 09:34:02;;;;;;;60.35;28.05;;;;;;;17.07;100.00;101645.81;5050008;28;20424;-76
2023/10/10 09:36:27;;;;;;;60.53;28.90;;;;;;;17.19;100.00;101651.06;5049712;28;20052;-76
2023/10/10 09:38:54;;;;;;;59.95;29.45;;;;;;;17.32;100.00;101659.16;5044897;28;20040;-76
2023/10/10 09:41:28;;;;;;;50.60;26.35;;;;;;;17.30;100.00;101656.72;5019711;28;20021;-77
2023/10/10 09:58:15;;;;;;;61.30;26.90;;;;;;;17.82;100.00;101659.06;5043842;28;20033;-77
2023/10/10 10:03:55;;;;;;;53.20;26.58;;;;;;;18.03;100.00;101667.50;5042745;28;20029;-74
2023/10/10 10:09:09;;;;;;;47.25;23.60;;;;;;;18.22;100.00;101673.91;5034989;28;20029;-75
2023/10/10 10:12:08;;;;;;;52.58;24.88;;;;;;;18.27;100.00;101664.97;5042168;28;20649;-75
2023/10/10 10:14:50;;;;;;;43.20;23.58;;;;;;;18.38;100.00;101667.75;5030801;28;20119;-73
2023/10/10 10:20:20;;;;;;;43.97;20.38;;;;;;;18.59;100.00;101663.97;5030986;28;20033;-73
2023/10/10 10:22:53;;;;;;;46.88;22.65;;;;;;;18.69;100.00;101660.28;5014265;28;20072;-73
2023/10/10 10:25:22;;;;;;;41.35;21.42;;;;;;;18.70;100.00;101667.56;5026296;28;20037;-72
2023/10/10 10:27:53;;;;;;;45.15;21.45;;;;;;;18.83;100.00;101660.22;5018673;28;20132;-72
2023/10/10 10:32:53;;;;;;;45.50;22.83;;;;;;;18.79;100.00;101658.63;5042762;28;20603;-72
2023/10/10 10:35:23;;;;;;;33.28;16.60;;;;;;;18.71;100.00;101668.38;5024108;28;20052;-73
2023/10/10 10:37:57;;;;;;;22.40;13.25;;;;;;;18.76;100.00;101660.22;5040225;28;20033;-73
2023/10/10 10:40:45;;;;;;;24.02;11.70;;;;;;;18.61;100.00;101655.88;5023979;28;20429;-73
2023/10/10 10:43:20;;;;;;;23.42;11.82;;;;;;;18.77;100.00;101670.34;5038682;28;20033;-75
2023/10/10 10:45:51;;;;;;;20.35;10.48;;;;;;;18.74;100.00;101662.69;5043995;28;20024;-72
2023/10/10 10:48:30;;;;;;;21.27;10.70;;;;;;;18.92;100.00;101667.44;5049742;28;20179;-74
2023/10/10 10:51:22;;;;;;;17.75;10.30;;;;;;;18.99;100.00;101656.03;5042192;28;20107;-73
2023/10/10 10:53:50;;;;;;;16.27;8.57;;;;;;;19.13;100.00;101667.28;5030052;28;20017;-75
2023/10/10 11:01:42;;;;;;;22.13;10.03;;;;;;;19.45;100.00;101654.81;5017702;28;20122;-73
2023/10/10 11:04:14;;;;;;;18.40;9.98;;;;;;;19.38;100.00;101654.91;5025738;28;20043;-74
2023/10/10 11:06:52;;;;;;;18.25;10.52;;;;;;;19.40;100.00;101653.25;5040159;28;20492;-73
2023/10/10 11:09:40;;;;;;;20.77;9.82;;;;;;;19.68;100.00;101654.16;5041304;28;20029;-75
2023/10/10 11:12:06;;;;;;;19.17;11.30;;;;;;;19.39;100.00;101645.13;5043784;28;20752;-74
2023/10/10 11:14:44;;;;;;;23.38;11.50;;;;;;;19.48;100.00;101637.75;5039367;28;20037;-75
2023/10/10 11:17:17;;;;;;;19.38;11.43;;;;;;;19.37;100.00;101624.88;5023416;28;20029;-74
2023/10/10 11:19:46;;;;;;;18.30;10.77;;;;;;;19.42;100.00;101641.47;5018775;28;20049;-75
2023/10/10 11:25:01;;;;;;;20.33;11.13;;;;;;;19.57;100.00;101627.94;5036168;28;20100;-76
2023/10/10 11:27:32;;;;;;;15.32;8.77;;;;;;;19.77;100.00;101619.59;5025994;28;20041;-76
2023/10/10 11:30:08;;;;;;;16.45;8.70;;;;;;;19.91;100.00;101613.75;5039773;28;20029;-77
2023/10/10 11:32:47;;;;;;;20.30;10.10;;;;;;;19.97;100.00;101614.09;5039522;28;20551;-77
2023/10/10 11:35:22;;;;;;;17.05;9.35;;;;;;;19.96;100.00;101613.28;5045609;28;20036;-77
2023/10/10 11:37:58;;;;;;;20.00;10.13;;;;;;;20.44;100.00;101617.88;5042423;28;20031;-77
2023/10/10 11:43:11;;;;;;;13.45;7.30;;;;;;;20.23;100.00;101615.38;5038436;28;20025;-76
2023/10/10 11:45:50;;;;;;;19.00;9.63;;;;;;;20.49;99.79;101611.75;5031072;28;20029;-77
2023/10/10 11:48:16;;;;;;;14.00;8.73;;;;;;;21.10;100.00;101619.31;5044264;28;20108;-76
2023/10/10 11:50:43;;;;;;;15.75;7.88;;;;;;;20.58;100.00;101619.75;5044855;28;20033;-79
2023/10/10 11:53:13;;;;;;;17.25;8.25;;;;;;;20.41;100.00;101618.75;5039776;28;20036;-75
2023/10/10 11:55:40;;;;;;;12.98;8.38;;;;;;;20.52;100.00;101616.56;5041683;28;20072;-77
2023/10/10 11:58:08;;;;;;;15.88;10.02;;;;;;;20.12;100.00;101614.72;5042650;28;20110;-78
2023/10/10 12:00:44;;;;;;;15.38;7.82;;;;;;;20.17;100.00;101612.19;5042559;28;20045;-73
2023/10/10 12:03:13;;;;;;;19.65;9.80;;;;;;;20.37;100.00;101620.06;5040265;28;20083;-74
2023/10/10 12:05:48;;;;;;;17.17;9.48;;;;;;;20.42;100.00;101617.50;5042912;28;20468;-76
2023/10/10 12:08:24;;;;;;;19.05;9.90;;;;;;;20.40;97.74;101619.97;5029967;28;20059;-75
2023/10/10 12:11:04;;;;;;;19.27;9.63;;;;;;;20.43;100.00;101607.78;5046068;28;20086;-74
2023/10/10 12:15:55;;;;;;;13.68;7.68;;;;;;;21.09;94.93;101609.16;5047651;28;20523;-75
2023/10/10 12:18:21;;;;;;;12.75;8.05;;;;;;;20.54;99.50;101596.22;5048346;28;20033;-75
2023/10/10 12:20:47;;;;;;;18.00;9.75;;;;;;;20.57;95.59;101603.09;5041813;28;20448;-73
2023/10/10 12:23:15;;;;;;;18.40;8.25;;;;;;;20.54;96.50;101592.59;5039403;28;20029;-75
2023/10/10 12:25:43;;;;;;;15.13;8.57;;;;;;;20.24;92.50;101589.34;5040063;28;20087;-72
2023/10/10 12:28:09;;;;;;;16.48;8.15;;;;;;;20.42;93.38;101583.41;5036434;28;20120;-72
2023/10/10 12:30:40;;;;;;;18.90;8.93;;;;;;;20.57;97.27;101580.34;5038179;28;20060;-76
2023/10/10 12:33:12;;;;;;;16.10;8.55;;;;;;;20.74;94.89;101579.25;5041465;28;20112;-76
2023/10/10 12:35:43;;;;;;;17.27;9.27;;;;;;;20.71;95.33;101586.63;5016747;28;20032;-75
2023/10/10 12:38:09;;;;;;;17.10;7.97;;;;;;;20.60;94.18;101580.31;5021288;28;20029;-76
2023/10/10 12:40:35;;;;;;;15.07;7.97;;;;;;;20.67;97.13;101580.19;5042526;28;20028;-75
2023/10/10 12:43:03;;;;;;;15.98;8.07;;;;;;;20.78;96.75;101574.31;5039002;28;20107;-75
2023/10/10 12:45:29;;;;;;;14.85;7.50;;;;;;;20.81;95.87;101573.47;5032190;28;20483;-75
2023/10/10 12:47:57;;;;;;;13.57;6.95;;;;;;;20.56;99.43;101573.06;5039551;28;20036;-75
2023/10/10 12:50:26;;;;;;;20.00;8.35;;;;;;;20.64;93.61;101574.56;5040495;28;20020;-76
2023/10/10 12:53:15;;;;;;;13.48;7.78;;;;;;;20.76;96.31;101576.78;5040376;28;20028;-75
2023/10/10 12:55:48;;;;;;;15.60;8.02;;;;;;;20.78;90.60;101574.31;5053179;28;20115;-75
2023/10/10 12:58:16;;;;;;;14.27;7.20;;;;;;;20.78;97.58;101579.22;5027354;28;20040;-75
2023/10/10 13:00:53;;;;;;;14.95;6.95;;;;;;;20.83;94.02;101573.00;5035563;28;20039;-75
2023/10/10 13:03:27;;;;;;;17.20;7.13;;;;;;;20.83;92.87;101575.88;5037980;28;20040;-74
2023/10/10 13:06:02;;;;;;;15.18;7.40;;;;;;;20.94;93.48;101572.84;5025141;28;20487;-74
2023/10/10 13:08:38;;;;;;;14.65;7.57;;;;;;;21.06;90.51;101573.03;5034981;28;20032;-74
2023/10/10 13:11:32;;;;;;;13.13;7.75;;;;;;;20.98;96.87;101570.75;5035497;28;20025;-75
2023/10/10 13:14:08;;;;;;;24.20;8.40;;;;;;;20.83;99.37;101556.78;5033292;28;20029;-75
2023/10/10 13:19:06;;;;;;;15.63;8.15;;;;;;;20.88;100.00;101558.31;5037579;28;20572;-75
2023/10/10 13:21:34;;;;;;;10.48;6.88;;;;;;;20.72;100.00;101553.28;5030885;28;20528;-75
2023/10/10 13:24:00;;;;;;;16.65;9.75;;;;;;;20.76;100.00;101554.03;5041842;28;20058;-75
2023/10/10 13:26:27;;;;;;;19.00;9.00;;;;;;;20.85;100.00;101557.16;5041351;28;20116;-75
2023/10/10 13:28:53;;;;;;;17.00;9.38;;;;;;;20.75;100.00;101555.28;5040061;28;20083;-74
2023/10/10 13:31:19;;;;;;;17.98;9.40;;;;;;;20.83;99.89;101565.31;5038965;28;20125;-76
2023/10/10 13:33:45;;;;;;;16.52;8.40;;;;;;;20.97;100.00;101567.09;5036472;28;20067;-76
2023/10/10 13:36:12;;;;;;;18.45;9.00;;;;;;;20.85;99.23;101562.00;5022892;28;20442;-77
2023/10/10 13:38:48;;;;;;;13.35;8.02;;;;;;;20.82;100.00;101552.31;5038939;28;20054;-77
2023/10/10 13:41:27;;;;;;;13.38;8.38;;;;;;;20.75;100.00;101546.75;5042628;28;20404;-73
2023/10/10 13:43:57;;;;;;;15.73;8.43;;;;;;;20.66;100.00;101543.63;5039062;28;20511;-74
2023/10/10 13:46:23;;;;;;;14.30;8.02;;;;;;;20.87;100.00;101542.47;5045382;28;20536;-72
2023/10/10 13:48:49;;;;;;;14.85;8.32;;;;;;;20.96;100.00;101550.47;5042303;28;20497;-73
2023/10/10 13:51:16;;;;;;;13.27;7.57;;;;;;;20.87;100.00;101551.81;5037952;28;20051;-73
2023/10/10 13:53:43;;;;;;;15.50;8.93;;;;;;;20.98;100.00;101548.78;5035942;28;20032;-72
2023/10/10 13:56:10;;;;;;;21.02;8.15;;;;;;;20.79;100.00;101547.50;5042439;28;20032;-73
2023/10/10 13:58:46;;;;;;;13.90;7.25;;;;;;;20.79;100.00;101530.44;5042291;28;20037;-73
2023/10/10 14:01:18;;;;;;;18.05;8.10;;;;;;;20.95;100.00;101534.63;5043406;28;20030;-74
2023/10/10 14:03:48;;;;;;;16.15;7.50;;;;;;;20.88;100.00;101533.50;5041269;28;20040;-75
2023/10/10 14:06:19;;;;;;;15.07;6.72;;;;;;;20.90;100.00;101533.06;5040250;28;20037;-75
2023/10/10 14:08:47;;;;;;;13.27;7.65;;;;;;;20.85;100.00;101537.22;5037865;28;20496;-74
2023/10/10 14:11:20;;;;;;;13.20;7.28;;;;;;;20.85;100.00;101527.88;5037610;28;20020;-74
2023/10/10 14:13:50;;;;;;;12.32;6.60;;;;;;;20.90;100.00;101530.22;5037531;28;20037;-74
2023/10/10 14:16:16;;;;;;;13.90;7.57;;;;;;;20.98;100.00;101526.03;5038051;28;20064;-73
2023/10/10 14:18:42;;;;;;;12.02;7.45;;;;;;;20.94;100.00;101524.47;5022110;28;20044;-73
2023/10/10 14:21:08;;;;;;;14.90;8.32;;;;;;;20.96;97.77;101531.34;5038860;28;20033;-74
2023/10/10 14:23:40;;;;;;;14.27;8.13;;;;;;;20.83;100.00;101528.31;5031187;28;20142;-73
2023/10/10 14:26:13;;;;;;;16.13;7.78;;;;;;;20.83;100.00;101525.47;5031019;28;20025;-73
2023/10/10 14:28:51;;;;;;;13.43;7.85;;;;;;;20.85;100.00;101516.47;5043951;28;20060;-73
2023/10/10 14:31:24;;;;;;;14.85;8.95;;;;;;;20.78;100.00;101508.88;5025498;28;20024;-74
2023/10/10 14:33:51;;;;;;;14.25;9.20;;;;;;;20.75;100.00;101506.91;5035655;28;20068;-73
2023/10/10 14:36:17;;;;;;;16.00;8.68;;;;;;;20.83;100.00;101502.72;5044814;28;20029;-73
2023/10/10 14:38:48;;;;;;;14.68;8.65;;;;;;;20.75;100.00;101489.84;5043057;28;20047;-73